Time;durP1;ratioP1;P1;durP2;ratioP2;P2;SDS_P1;SDS_P2;PMS_P1;PMS_P2;Temp;Humidity;BMP_temperature;BMP_pressure;BME280_temperature;BME280_humidity;BME280_pressure;Samples;Min_cycle;Max_cycle;Signal;HPM_P1;HPM_P2
2022/08/25 00:02:05;;;;;;;0.40;0.40;;;21.70;76.40;;;21.88;61.16;95228.25;5034082;28;20311;-80
2022/08/25 00:04:35;;;;;;;0.50;0.50;;;21.70;76.40;;;21.84;61.19;95232.50;5011780;28;20203;-79
2022/08/25 00:07:04;;;;;;;0.40;0.40;;;21.60;76.00;;;21.77;60.95;95218.56;5004942;28;20671;-80
2022/08/25 00:09:33;;;;;;;0.40;0.40;;;21.50;76.10;;;21.74;61.10;95221.75;4998084;28;20285;-80
2022/08/25 00:12:02;;;;;;;0.40;0.40;;;21.50;76.30;;;21.68;61.18;95226.22;4989058;28;20228;-80
2022/08/25 00:14:35;;;;;;;0.50;0.50;;;21.40;76.20;;;21.63;61.25;95215.53;5032825;28;20276;-80
2022/08/25 00:17:05;;;;;;;0.40;0.40;;;21.40;76.50;;;21.58;61.13;95218.94;5015140;28;20221;-80
2022/08/25 00:19:35;;;;;;;0.40;0.40;;;21.30;76.30;;;21.54;61.39;95219.66;5032652;28;20193;-80
2022/08/25 00:22:04;;;;;;;0.40;0.40;;;21.30;76.70;;;21.49;61.34;95216.97;5033196;28;20225;-80
2022/08/25 00:24:32;;;;;;;0.40;0.40;;;21.20;76.50;;;21.43;61.29;95219.59;5016282;28;20196;-79
2022/08/25 00:27:00;;;;;;;0.40;0.40;;;21.10;76.50;;;21.40;61.67;95216.63;5017230;28;20708;-80
2022/08/25 00:29:30;;;;;;;0.40;0.40;;;21.10;76.70;;;21.35;62.19;95219.22;5030375;28;20198;-79
2022/08/25 00:31:58;;;;;;;0.40;0.40;;;21.10;77.00;;;21.32;61.66;95222.41;5011315;28;20239;-80
2022/08/25 00:34:34;;;;;;;0.50;0.50;;;21.00;76.90;;;21.29;62.21;95223.72;5013873;28;20198;-80
2022/08/25 00:37:06;;;;;;;0.40;0.40;;;21.00;77.40;;;21.23;61.99;95214.06;4997174;28;20289;-80
2022/08/25 00:39:33;;;;;;;0.50;0.50;;;20.90;77.00;;;21.21;61.99;95226.81;4990388;28;20650;-80
2022/08/25 00:42:00;;;;;;;0.40;0.40;;;20.90;76.90;;;21.16;61.52;95219.56;5012644;28;20218;-80
2022/08/25 00:44:30;;;;;;;0.40;0.40;;;20.90;77.00;;;21.13;62.19;95220.09;4997311;28;20205;-80
2022/08/25 00:47:00;;;;;;;0.50;0.50;;;20.80;77.20;;;21.10;62.15;95220.56;4997198;28;20225;-80
2022/08/25 00:49:55;;;;;;;0.40;0.40;;;20.80;77.20;;;21.07;62.30;95226.44;4979919;28;20210;-79
2022/08/25 00:52:50;;;;;;;0.50;0.50;;;20.80;78.00;;;21.03;62.50;95219.97;4980676;28;20229;-80
2022/08/25 00:55:27;;;;;;;0.50;0.50;;;20.70;77.60;;;20.99;62.64;95219.66;5011910;28;20669;-80
2022/08/25 00:58:18;;;;;;;0.43;0.43;;;20.70;78.00;;;20.99;62.66;95217.00;5013399;28;20270;-80
2022/08/25 01:00:49;;;;;;;0.50;0.50;;;20.70;78.10;;;21.01;62.39;95217.56;5006876;28;20209;-80
2022/08/25 01:03:18;;;;;;;0.40;0.40;;;20.70;78.10;;;21.03;63.12;95220.78;5029679;28;20250;-79
2022/08/25 01:05:46;;;;;;;0.50;0.50;;;20.70;78.00;;;21.06;62.82;95216.81;4997749;28;20646;-79
2022/08/25 01:08:15;;;;;;;0.47;0.47;;;20.70;78.00;;;21.08;63.06;95215.50;5032863;28;20659;-80
2022/08/25 01:10:44;;;;;;;0.50;0.50;;;20.80;78.20;;;21.11;62.79;95214.19;5026434;28;20194;-78
2022/08/25 01:13:26;;;;;;;0.47;0.47;;;20.80;78.40;;;21.14;63.05;95219.03;5032768;28;20209;-80
2022/08/25 01:15:56;;;;;;;0.40;0.40;;;20.80;78.80;;;21.17;63.23;95205.19;5033100;28;20202;-79
2022/08/25 01:18:23;;;;;;;0.40;0.40;;;20.90;78.50;;;21.22;63.11;95204.44;5027222;28;20269;-80
2022/08/25 01:20:54;;;;;;;0.40;0.40;;;20.90;78.50;;;21.26;63.32;95202.88;4996370;28;20638;-79
2022/08/25 01:23:23;;;;;;;0.40;0.40;;;20.90;78.60;;;21.30;63.18;95206.66;5013175;28;20218;-80
2022/08/25 01:25:53;;;;;;;0.38;0.38;;;20.90;78.60;;;21.34;63.29;95210.41;5012289;28;20193;-79
2022/08/25 01:28:20;;;;;;;0.45;0.45;;;21.00;78.80;;;21.37;63.14;95203.78;5002665;28;20298;-78
2022/08/25 01:30:48;;;;;;;0.30;0.30;;;21.00;78.60;;;21.38;63.10;95200.84;5015186;28;20277;-80
2022/08/25 01:33:16;;;;;;;0.40;0.40;;;21.00;78.60;;;21.43;63.17;95200.09;5016148;28;20202;-80
2022/08/25 01:35:43;;;;;;;0.40;0.40;;;21.10;78.70;;;21.46;63.75;95198.78;4997795;28;20216;-80
2022/08/25 01:38:11;;;;;;;0.50;0.50;;;21.10;78.70;;;21.48;63.21;95196.66;4988621;28;20655;-79
2022/08/25 01:40:41;;;;;;;0.40;0.40;;;21.10;78.60;;;21.48;63.94;95199.34;5012364;28;20206;-80
2022/08/25 01:43:15;;;;;;;0.40;0.40;;;21.20;78.70;;;21.49;63.96;95195.59;4996435;28;20234;-80
2022/08/25 01:45:47;;;;;;;0.40;0.40;;;21.20;79.00;;;21.49;64.35;95188.41;5005385;28;20202;-80
2022/08/25 01:48:16;;;;;;;0.50;0.50;;;21.30;78.80;;;21.50;63.86;95192.69;5030955;28;20242;-80
2022/08/25 01:50:44;;;;;;;0.35;0.35;;;21.30;78.80;;;21.51;63.81;95186.28;5015303;28;20206;-79
2022/08/25 01:53:31;;;;;;;0.40;0.40;;;21.30;78.80;;;21.53;63.68;95191.38;5013252;28;20214;-80
2022/08/25 01:56:08;;;;;;;0.40;0.40;;;21.30;79.10;;;21.55;63.97;95184.72;5026701;28;20266;-79
2022/08/25 01:58:40;;;;;;;0.40;0.40;;;21.30;78.70;;;21.54;64.07;95183.09;4996448;28;20731;-80
2022/08/25 02:01:14;;;;;;;0.40;0.40;;;21.30;78.70;;;21.54;64.01;95187.63;5005887;28;20233;-79
2022/08/25 02:03:45;;;;;;;0.40;0.40;;;21.30;78.70;;;21.54;63.61;95180.44;5008301;28;20225;-80
2022/08/25 02:06:20;;;;;;;0.50;0.50;;;21.30;78.50;;;21.49;63.51;95179.59;5031749;28;20682;-80
2022/08/25 02:08:59;;;;;;;0.40;0.40;;;21.30;78.40;;;21.44;63.62;95185.69;5011203;28;20200;-79
2022/08/25 02:11:27;;;;;;;0.50;0.50;;;21.30;78.40;;;21.39;64.02;95177.66;5011986;28;20221;-80
2022/08/25 02:13:55;;;;;;;0.50;0.50;;;21.20;78.40;;;21.36;63.97;95181.63;4995611;28;20237;-80
2022/08/25 02:16:28;;;;;;;0.40;0.40;;;21.20;78.60;;;21.37;64.35;95174.41;4995694;28;20324;-80
2022/08/25 02:18:56;;;;;;;0.50;0.50;;;21.10;78.90;;;21.39;64.25;95169.66;5015741;28;20196;-80
2022/08/25 02:21:23;;;;;;;0.40;0.40;;;21.20;78.80;;;21.41;64.25;95176.34;5031080;28;20212;-80
2022/08/25 02:23:50;;;;;;;0.40;0.40;;;21.10;78.90;;;21.43;64.10;95174.22;5031359;28;20798;-80
2022/08/25 02:26:18;;;;;;;0.43;0.43;;;21.10;78.80;;;21.46;63.85;95172.91;5015030;28;20220;-79
2022/08/25 02:28:47;;;;;;;0.40;0.40;;;21.10;78.80;;;21.48;63.86;95172.66;5030127;28;20206;-78
2022/08/25 02:31:15;;;;;;;0.30;0.30;;;21.20;78.90;;;21.50;63.87;95171.34;5030129;28;20220;-79
2022/08/25 02:33:43;;;;;;;0.40;0.40;;;21.20;78.90;;;21.51;63.86;95167.59;5014742;28;20204;-79
2022/08/25 02:36:10;;;;;;;0.40;0.40;;;21.20;78.80;;;21.51;63.55;95164.94;5014950;28;20219;-80
2022/08/25 02:38:39;;;;;;;0.40;0.40;;;21.20;78.80;;;21.53;63.94;95170.00;5028066;28;20289;-80
2022/08/25 02:41:22;;;;;;;0.40;0.40;;;21.20;78.90;;;21.53;63.54;95165.50;5014852;28;20723;-80
2022/08/25 02:43:59;;;;;;;0.60;0.60;;;21.20;79.20;;;21.54;63.57;95155.63;5030530;28;20329;-79
2022/08/25 02:46:27;;;;;;;0.40;0.40;;;21.20;78.80;;;21.54;63.60;95164.41;5031477;28;20214;-79
2022/08/25 02:48:54;;;;;;;0.40;0.40;;;21.20;78.80;;;21.54;63.36;95158.28;5027875;28;20635;-79
2022/08/25 02:51:24;;;;;;;0.40;0.40;;;21.20;78.80;;;21.52;63.68;95158.53;5031142;28;20227;-79
2022/08/25 02:53:51;;;;;;;0.47;0.47;;;21.30;78.90;;;21.53;63.73;95164.69;5014874;28;20305;-80
2022/08/25 02:56:19;;;;;;;0.40;0.40;;;21.20;78.80;;;21.53;63.56;95156.66;5010541;28;20219;-80
2022/08/25 02:58:46;;;;;;;0.43;0.43;;;21.20;78.90;;;21.50;63.80;95152.66;5011302;28;20295;-80
2022/08/25 03:01:15;;;;;;;0.40;0.40;;;21.20;78.90;;;21.51;63.88;95158.81;5016302;28;20226;-80
2022/08/25 03:03:46;;;;;;;0.40;0.40;;;21.20;78.90;;;21.51;64.16;95153.47;5011123;28;20220;-80
2022/08/25 03:06:18;;;;;;;0.40;0.40;;;21.20;79.00;;;21.50;63.83;95151.84;5015337;28;20207;-80
2022/08/25 03:08:47;;;;;;;0.40;0.40;;;21.20;78.90;;;21.50;63.83;95158.00;4999322;28;20704;-79
2022/08/25 03:11:14;;;;;;;0.40;0.40;;;21.30;78.90;;;21.47;64.17;95157.69;4999517;28;20335;-80
2022/08/25 03:13:41;;;;;;;0.40;0.40;;;21.20;78.80;;;21.48;63.90;95153.97;5014777;28;20215;-80
2022/08/25 03:16:09;;;;;;;0.40;0.40;;;21.20;79.00;;;21.49;64.87;95150.25;5009846;28;20221;-80
2022/08/25 03:18:41;;;;;;;0.43;0.43;;;21.20;79.00;;;21.51;64.36;95148.13;5017203;28;20202;-79
2022/08/25 03:21:10;;;;;;;0.40;0.40;;;21.20;79.10;;;21.52;64.60;95139.03;5015380;28;20220;-80
2022/08/25 03:23:40;;;;;;;0.40;0.40;;;21.20;79.00;;;21.53;64.19;95141.47;5016311;28;20277;-80
2022/08/25 03:28:56;;;;;;;0.50;0.50;;;21.30;79.10;;;21.56;64.03;95146.31;5035129;28;20637;-80
2022/08/25 03:31:26;;;;;;;0.40;0.40;;;21.30;79.10;;;21.58;64.19;95144.22;5023204;28;20728;-80
2022/08/25 03:33:54;;;;;;;0.40;0.40;;;21.30;79.20;;;21.60;63.95;95138.59;5016659;28;20290;-80
2022/08/25 03:36:21;;;;;;;0.50;0.50;;;21.30;79.10;;;21.60;63.94;95141.28;5017628;28;20237;-80
2022/08/25 03:38:49;;;;;;;0.40;0.40;;;21.30;79.10;;;21.60;64.18;95138.59;5015175;28;20209;-79
2022/08/25 03:41:24;;;;;;;0.40;0.40;;;21.30;79.10;;;21.65;64.31;95145.84;5014330;28;20205;-80
2022/08/25 03:43:55;;;;;;;0.43;0.43;;;21.40;79.40;;;21.65;64.01;95149.31;5017371;28;20223;-80
2022/08/25 03:46:33;;;;;;;0.40;0.40;;;21.30;79.10;;;21.65;64.32;95146.66;5013571;28;20223;-80
2022/08/25 03:49:04;;;;;;;0.40;0.40;;;21.40;79.20;;;21.65;64.08;95143.97;5008893;28;20258;-81
2022/08/25 03:51:35;;;;;;;0.40;0.40;;;21.40;79.30;;;21.68;64.46;95153.34;5037942;28;20249;-79
2022/08/25 03:54:04;;;;;;;0.40;0.40;;;21.40;79.20;;;21.68;64.39;95148.81;5016882;28;20249;-81
2022/08/25 03:56:31;;;;;;;0.40;0.40;;;21.40;79.20;;;21.68;64.20;95148.81;5003660;28;20210;-79
2022/08/25 03:58:59;;;;;;;0.40;0.40;;;21.40;79.20;;;21.70;64.45;95152.03;5014059;28;20286;-80
2022/08/25 04:01:27;;;;;;;0.40;0.40;;;21.40;79.20;;;21.69;64.43;95147.75;5000991;28;20216;-80
2022/08/25 04:03:55;;;;;;;0.40;0.40;;;21.40;79.20;;;21.72;63.98;95165.91;5011861;28;20221;-83
2022/08/25 04:06:22;;;;;;;0.40;0.40;;;21.40;79.30;;;21.72;64.10;95157.13;5021044;28;20316;-82
2022/08/25 04:08:51;;;;;;;0.40;0.40;;;21.40;79.30;;;21.74;64.19;95165.69;5026641;28;20314;-81
2022/08/25 04:11:21;;;;;;;0.40;0.40;;;21.40;79.40;;;21.74;64.52;95161.13;4996124;28;20244;-81
2022/08/25 04:13:50;;;;;;;0.40;0.40;;;21.40;79.50;;;21.75;64.37;95153.91;4996852;28;20214;-82
2022/08/25 04:16:25;;;;;;;0.40;0.40;;;21.50;79.70;;;21.78;64.47;95156.09;5006046;28;20306;-82
2022/08/25 04:18:54;;;;;;;0.40;0.40;;;21.50;80.00;;;21.80;64.25;95150.50;4995362;28;20297;-82
2022/08/25 04:21:22;;;;;;;0.38;0.38;;;21.50;79.70;;;21.77;64.56;95146.47;5009590;28;20300;-83
2022/08/25 04:23:52;;;;;;;0.40;0.40;;;21.50;79.80;;;21.75;64.35;95145.91;5012196;28;20221;-81
2022/08/25 04:26:27;;;;;;;0.45;0.45;;;21.50;79.80;;;21.75;64.66;95144.06;5011960;28;20218;-82
2022/08/25 04:28:56;;;;;;;0.40;0.40;;;21.50;80.00;;;21.77;64.77;95140.34;4995613;28;20295;-83
2022/08/25 04:31:24;;;;;;;0.50;0.50;;;21.50;80.00;;;21.78;64.78;95144.63;5003029;28;20365;-81
2022/08/25 04:33:51;;;;;;;0.40;0.40;;;21.50;80.00;;;21.74;64.67;95129.09;4990880;28;20302;-82
2022/08/25 04:36:20;;;;;;;0.40;0.40;;;21.50;80.00;;;21.75;64.89;95132.56;4998360;28;20573;-83
2022/08/25 04:38:48;;;;;;;0.40;0.40;;;21.50;80.20;;;21.81;64.74;95131.53;5019206;28;20545;-80
2022/08/25 04:41:19;;;;;;;0.40;0.40;;;21.50;79.60;;;21.82;64.85;95132.34;5015561;28;20246;-81
2022/08/25 04:43:49;;;;;;;0.40;0.40;;;21.50;80.30;;;21.83;64.76;95131.28;4998469;28;20273;-82
2022/08/25 04:46:21;;;;;;;0.40;0.40;;;21.50;80.10;;;21.80;64.79;95127.28;4982371;28;20256;-83
2022/08/25 04:48:52;;;;;;;0.40;0.40;;;21.50;80.30;;;21.81;64.75;95122.72;4993258;28;20207;-82
2022/08/25 04:51:29;;;;;;;0.40;0.40;;;21.60;80.20;;;21.85;65.20;95132.66;4975502;28;20257;-81
2022/08/25 04:54:00;;;;;;;0.40;0.40;;;21.50;80.10;;;21.86;65.00;95128.09;5006455;28;20217;-82
2022/08/25 04:56:28;;;;;;;0.40;0.40;;;21.60;80.40;;;21.87;64.94;95135.88;4990759;28;20577;-82
2022/08/25 04:58:55;;;;;;;0.40;0.40;;;21.60;80.20;;;21.88;64.73;95136.66;4987461;28;20516;-81
2022/08/25 05:01:25;;;;;;;0.40;0.40;;;21.60;80.20;;;21.91;64.96;95138.84;4976832;28;20234;-82
2022/08/25 05:03:58;;;;;;;0.40;0.40;;;21.60;80.40;;;21.93;65.22;95141.22;5004294;28;20331;-82
2022/08/25 05:06:27;;;;;;;0.40;0.40;;;21.60;80.50;;;21.90;64.98;95135.34;5011563;28;20242;-82
2022/08/25 05:08:55;;;;;;;0.30;0.30;;;21.60;80.30;;;21.95;64.71;95136.41;4980189;28;20196;-81
2022/08/25 05:11:24;;;;;;;0.47;0.47;;;21.60;80.40;;;21.96;65.12;95135.38;4997853;28;20234;-81
2022/08/25 05:13:54;;;;;;;0.40;0.40;;;21.60;80.40;;;21.95;65.33;95139.09;5016017;28;20242;-81
2022/08/25 05:16:23;;;;;;;0.40;0.40;;;21.70;80.60;;;21.95;65.01;95126.56;5020166;28;20230;-80
2022/08/25 05:18:52;;;;;;;0.40;0.40;;;21.70;80.60;;;21.95;64.96;95131.91;5012977;28;20730;-82
2022/08/25 05:21:24;;;;;;;0.32;0.32;;;21.70;80.60;;;21.97;65.42;95127.13;5018703;28;20217;-82
2022/08/25 05:24:00;;;;;;;0.40;0.40;;;21.70;80.70;;;21.97;65.51;95131.63;5004189;28;20211;-82
2022/08/25 05:26:30;;;;;;;0.40;0.40;;;21.70;80.90;;;21.94;65.21;95132.97;4996447;28;20660;-81
2022/08/25 05:29:00;;;;;;;0.50;0.50;;;21.70;80.60;;;21.93;65.24;95136.69;4996345;28;20238;-82
2022/08/25 05:31:28;;;;;;;0.30;0.30;;;21.70;80.70;;;21.94;65.28;95135.63;5012348;28;20227;-81
2022/08/25 05:33:56;;;;;;;0.40;0.40;;;21.70;80.60;;;21.93;65.31;95135.91;5027691;28;20214;-80
2022/08/25 05:36:26;;;;;;;0.40;0.40;;;21.70;80.60;;;21.94;65.72;95135.63;4986640;28;20684;-81
2022/08/25 05:38:54;;;;;;;0.40;0.40;;;21.70;80.90;;;21.93;65.25;95125.22;4990366;28;20214;-81
2022/08/25 05:41:27;;;;;;;0.40;0.40;;;21.70;80.70;;;21.93;65.43;95127.88;4976064;28;20224;-81
2022/08/25 05:43:55;;;;;;;0.40;0.40;;;21.70;81.00;;;21.91;65.63;95134.28;5001298;28;20308;-81
2022/08/25 05:46:23;;;;;;;0.40;0.40;;;21.70;80.80;;;21.94;65.76;95129.50;4997009;28;21474;-81
2022/08/25 05:48:50;;;;;;;0.43;0.43;;;21.70;81.00;;;21.90;65.55;95116.66;4995325;28;20676;-82
2022/08/25 05:51:18;;;;;;;0.40;0.40;;;21.70;81.10;;;21.97;65.48;95120.94;5008673;28;20232;-83
2022/08/25 05:53:50;;;;;;;0.38;0.38;;;21.70;81.30;;;22.02;65.89;95127.13;4992923;28;20745;-81
2022/08/25 05:56:18;;;;;;;0.40;0.40;;;21.70;82.40;;;22.07;65.73;95131.72;4974449;28;20228;-83
2022/08/25 05:58:46;;;;;;;0.40;0.40;;;21.70;81.30;;;22.11;66.07;95127.44;5003239;28;20207;-82
2022/08/25 06:04:16;;;;;;;0.40;0.40;;;21.80;82.00;;;22.19;66.14;95128.81;4995093;28;20234;-82
2022/08/25 06:06:43;;;;;;;0.40;0.40;;;21.90;81.60;;;22.23;66.09;95130.69;4990544;28;20239;-83
2022/08/25 06:09:11;;;;;;;0.40;0.40;;;21.90;81.60;;;22.30;66.05;95121.66;4994260;28;20345;-83
2022/08/25 06:11:39;;;;;;;0.40;0.40;;;22.00;81.70;;;22.35;66.02;95122.47;4995441;28;20995;-82
2022/08/25 06:14:10;;;;;;;0.30;0.30;;;22.00;81.70;;;22.42;66.03;95121.47;5009454;28;20212;-82
2022/08/25 06:16:39;;;;;;;0.38;0.38;;;22.10;81.80;;;22.49;66.29;95122.03;5007334;28;20295;-82
2022/08/25 06:19:08;;;;;;;0.40;0.40;;;22.10;81.70;;;22.59;66.47;95123.94;4999316;28;20231;-82
2022/08/25 06:21:38;;;;;;;0.40;0.40;;;22.20;82.10;;;22.69;66.03;95129.28;4993819;28;20214;-83
2022/08/25 06:24:08;;;;;;;0.30;0.30;;;22.30;82.00;;;22.81;66.43;95135.22;4991854;28;20286;-81
2022/08/25 06:26:42;;;;;;;0.40;0.40;;;22.40;82.10;;;22.90;66.01;95130.16;4994726;28;20221;-81
2022/08/25 06:29:12;;;;;;;0.40;0.40;;;22.50;81.80;;;22.98;65.87;95134.97;5006806;28;20294;-82
2022/08/25 06:31:41;;;;;;;0.40;0.40;;;22.60;81.60;;;23.03;65.85;95134.19;5008287;28;20228;-81
2022/08/25 06:34:10;;;;;;;0.40;0.40;;;22.70;81.40;;;23.07;65.59;95135.28;4973954;28;20558;-83
2022/08/25 06:36:38;;;;;;;0.40;0.40;;;22.80;81.20;;;23.06;64.93;95132.84;5011492;28;20249;-82
2022/08/25 06:39:06;;;;;;;0.40;0.40;;;22.80;81.00;;;23.12;65.34;95139.81;4995144;28;20203;-82
2022/08/25 06:41:37;;;;;;;0.30;0.30;;;22.80;80.80;;;23.12;65.03;95137.97;5014942;28;20267;-81
2022/08/25 06:44:05;;;;;;;0.40;0.40;;;22.80;80.60;;;23.13;65.04;95141.41;5017780;28;20598;-82
2022/08/25 06:46:32;;;;;;;0.35;0.35;;;22.90;80.60;;;23.12;65.38;95135.28;5011423;28;20216;-80
2022/08/25 06:49:05;;;;;;;0.50;0.50;;;22.80;80.40;;;23.12;65.08;95134.47;5015117;28;20193;-81
2022/08/25 06:51:36;;;;;;;0.40;0.40;;;22.90;80.50;;;23.10;65.02;95137.41;5023124;28;20218;-80
2022/08/25 06:54:05;;;;;;;0.30;0.30;;;22.80;80.30;;;23.11;65.01;95135.56;5002951;28;20198;-81
2022/08/25 06:56:33;;;;;;;0.30;0.30;;;22.90;80.30;;;23.10;64.77;95142.75;5015053;28;20220;-81
2022/08/25 06:59:05;;;;;;;0.40;0.40;;;22.80;80.20;;;23.09;65.24;95143.03;5012218;28;20202;-81
2022/08/25 07:01:34;;;;;;;0.40;0.40;;;22.90;80.40;;;23.07;65.08;95143.31;5029080;28;20247;-82
2022/08/25 07:04:04;;;;;;;0.40;0.40;;;22.80;80.20;;;23.05;64.94;95139.28;5023887;28;20224;-82
2022/08/25 07:06:40;;;;;;;0.40;0.40;;;22.80;80.30;;;23.03;65.34;95145.72;5000421;28;20220;-81
2022/08/25 07:09:09;;;;;;;0.40;0.40;;;22.80;80.30;;;23.08;65.34;95147.56;5014020;28;20204;-82
2022/08/25 07:11:40;;;;;;;0.40;0.40;;;22.80;80.50;;;23.08;65.08;95141.41;4994376;28;20314;-81
2022/08/25 07:14:10;;;;;;;0.40;0.40;;;22.80;80.60;;;23.11;65.27;95146.25;4992840;28;20748;-81
2022/08/25 07:16:39;;;;;;;0.40;0.40;;;22.80;80.50;;;23.10;65.30;95140.09;5010535;28;20676;-81
2022/08/25 07:19:13;;;;;;;0.45;0.45;;;22.90;80.70;;;23.15;65.32;95148.13;4997264;28;20213;-82
2022/08/25 07:21:41;;;;;;;0.35;0.35;;;22.90;80.80;;;23.17;65.24;95142.53;5015078;28;20226;-82
2022/08/25 07:24:13;;;;;;;0.40;0.40;;;22.90;80.80;;;23.22;65.63;95141.72;5014230;28;20251;-82
2022/08/25 07:26:42;;;;;;;0.40;0.40;;;22.90;80.80;;;23.23;65.62;95152.19;5027929;28;20227;-81
2022/08/25 07:29:23;;;;;;;0.40;0.40;;;23.00;81.00;;;23.28;65.56;95154.06;5010839;28;20617;-82
2022/08/25 07:32:00;;;;;;;0.50;0.50;;;23.00;81.00;;;23.34;65.56;95155.69;5009990;28;20232;-82
2022/08/25 07:37:20;;;;;;;0.30;0.30;;;23.10;80.90;;;23.41;65.44;95153.53;5011650;28;20444;-82
2022/08/25 07:40:11;;;;;;;0.30;0.30;;;23.10;80.80;;;23.45;65.29;95151.94;4996859;28;20290;-80
2022/08/25 07:42:40;;;;;;;0.50;0.50;;;23.20;80.70;;;23.48;65.05;95153.25;4995008;28;20239;-81
2022/08/25 07:45:09;;;;;;;0.30;0.30;;;23.20;80.60;;;23.49;65.39;95150.31;4994052;28;20224;-80
2022/08/25 07:47:38;;;;;;;0.30;0.30;;;23.30;80.70;;;23.56;65.56;95147.38;5010996;28;20217;-80
2022/08/25 07:50:11;;;;;;;0.30;0.30;;;23.30;80.80;;;23.62;65.73;95146.31;5003757;28;20204;-80
2022/08/25 07:52:40;;;;;;;0.50;0.50;;;23.30;81.00;;;23.72;65.60;95139.34;4995902;28;20220;-80
2022/08/25 07:55:13;;;;;;;0.50;0.50;;;23.40;81.10;;;23.79;65.54;95137.16;5022497;28;20201;-80
2022/08/25 07:57:44;;;;;;;0.47;0.47;;;23.50;81.20;;;23.90;65.50;95144.13;5034182;28;20215;-81
2022/08/25 08:00:17;;;;;;;0.30;0.30;;;23.50;81.00;;;23.99;65.37;95147.09;5020786;28;20243;-81
2022/08/25 08:02:47;;;;;;;0.32;0.32;;;23.60;80.70;;;24.05;65.25;95140.66;5033157;28;20567;-82
2022/08/25 08:05:14;;;;;;;0.50;0.50;;;23.80;80.80;;;24.13;65.09;95148.13;5017688;28;20242;-81
2022/08/25 08:07:42;;;;;;;0.60;0.60;;;23.80;80.70;;;24.17;65.06;95143.03;5018145;28;20216;-81
2022/08/25 08:10:13;;;;;;;0.40;0.40;;;23.90;80.70;;;24.27;65.08;95145.66;5017310;28;20299;-80
2022/08/25 08:13:01;;;;;;;0.30;0.30;;;24.00;80.70;;;24.35;65.09;95143.50;5000625;28;20223;-81
2022/08/25 08:15:29;;;;;;;0.40;0.40;;;24.00;80.60;;;24.45;65.32;95148.84;4999969;28;20211;-81
2022/08/25 08:17:58;;;;;;;0.40;0.40;;;24.10;81.30;;;24.55;65.26;95148.00;5007617;28;20236;-80
2022/08/25 08:20:27;;;;;;;0.40;0.40;;;24.20;80.60;;;24.67;65.24;95145.00;5003022;28;20279;-81
2022/08/25 08:22:54;;;;;;;0.32;0.32;;;24.30;80.60;;;24.77;65.09;95134.25;5014225;28;20210;-80
2022/08/25 08:25:22;;;;;;;0.40;0.40;;;24.50;80.80;;;24.94;65.08;95145.41;5016303;28;20620;-80
2022/08/25 08:27:55;;;;;;;0.40;0.40;;;24.60;80.70;;;25.08;64.60;95136.72;5028875;28;20274;-80
2022/08/25 08:30:23;;;;;;;0.30;0.30;;;24.70;80.30;;;25.21;64.46;95130.75;5031557;28;20388;-80
2022/08/25 08:32:53;;;;;;;0.30;0.30;;;24.90;80.30;;;25.33;64.09;95143.00;5010558;28;20222;-80
2022/08/25 08:35:40;;;;;;;0.40;0.40;;;25.00;80.80;;;25.39;63.80;95145.41;5030868;28;20197;-80
2022/08/25 08:38:08;;;;;;;0.30;0.30;;;25.10;79.80;;;25.46;63.67;95152.34;5016720;28;20633;-83
2022/08/25 08:44:37;;;;;;;0.30;0.30;;;25.20;78.90;;;25.47;63.54;95146.69;5013215;28;20218;-79
2022/08/25 08:47:11;;;;;;;0.30;0.30;;;25.30;78.80;;;25.48;63.70;95147.50;5011058;28;20712;-78
2022/08/25 08:50:13;;;;;;;0.50;0.50;;;25.30;78.70;;;25.47;63.06;95141.31;5033242;28;20235;-79
2022/08/25 08:53:48;;;;;;;0.40;0.40;;;25.40;78.50;;;25.47;63.13;95148.59;5030928;28;20583;-78
2022/08/25 08:56:31;;;;;;;0.35;0.35;;;25.40;78.40;;;25.49;63.72;95155.28;5013722;28;20222;-78
2022/08/25 08:59:04;;;;;;;0.38;0.38;;;25.40;78.50;;;25.52;63.39;95141.28;4997462;28;20202;-79
2022/08/25 09:01:55;;;;;;;0.30;0.30;;;25.30;78.40;;;25.56;62.97;95139.63;4996384;28;20219;-79
2022/08/25 09:04:33;;;;;;;0.30;0.30;;;25.40;78.60;;;25.62;63.19;95145.78;5014997;28;20230;-79
2022/08/25 09:07:09;;;;;;;0.30;0.30;;;25.40;78.60;;;25.72;63.46;95152.94;5013313;28;20756;-79
2022/08/25 09:09:40;;;;;;;0.30;0.30;;;25.50;78.70;;;25.81;62.91;95147.75;4996899;28;20253;-79
2022/08/25 09:12:41;;;;;;;0.30;0.30;;;25.60;78.50;;;25.92;63.13;95151.16;4999066;28;20222;-80
2022/08/25 09:18:51;;;;;;;0.30;0.30;;;25.80;78.30;;;26.10;62.86;95142.41;5012908;28;20612;-81
2022/08/25 09:21:38;;;;;;;0.30;0.30;;;25.90;78.20;;;26.17;62.70;95140.16;5017565;28;20446;-81
2022/08/25 09:24:27;;;;;;;0.20;0.20;;;26.00;77.80;;;26.23;62.10;95137.41;5005828;28;20554;-81
2022/08/25 09:27:57;;;;;;;0.30;0.30;;;26.10;77.50;;;26.28;62.31;95130.09;5037169;28;20223;-80
2022/08/25 09:30:34;;;;;;;0.40;0.40;;;26.20;77.60;;;26.35;61.94;95135.94;4982271;28;20650;-81
2022/08/25 09:33:03;;;;;;;0.20;0.20;;;26.20;77.40;;;26.37;61.91;95135.66;5022064;28;20223;-81
2022/08/25 09:35:38;;;;;;;0.35;0.35;;;26.20;77.10;;;26.35;61.75;95127.06;5031962;28;20206;-81
2022/08/25 09:38:12;;;;;;;0.20;0.20;;;26.30;76.90;;;26.33;61.61;95118.47;5026403;28;20202;-82
2022/08/25 09:40:49;;;;;;;0.30;0.30;;;26.30;77.50;;;26.37;62.00;95124.88;4995723;28;20203;-81
2022/08/25 09:43:55;;;;;;;0.40;0.40;;;26.30;76.80;;;26.41;61.73;95120.53;5017591;28;20315;-81
2022/08/25 09:46:28;;;;;;;0.30;0.30;;;26.30;76.70;;;26.48;61.47;95120.19;5029542;28;20240;-81
2022/08/25 09:48:58;;;;;;;0.40;0.40;;;26.30;76.70;;;26.55;61.95;95112.56;5000744;28;20304;-81
2022/08/25 09:51:36;;;;;;;0.30;0.30;;;26.40;76.90;;;26.61;61.37;95108.72;4996492;28;20324;-82
2022/08/25 09:54:11;;;;;;;0.35;0.35;;;26.50;76.30;;;26.73;61.49;95113.66;5012389;28;20195;-82
2022/08/25 09:56:50;;;;;;;0.30;0.30;;;26.50;76.40;;;26.82;60.48;95111.97;5011903;28;20220;-82
2022/08/25 09:59:28;;;;;;;0.30;0.30;;;26.60;75.90;;;26.94;61.04;95108.84;5021504;28;20285;-81
2022/08/25 10:02:22;;;;;;;0.40;0.40;;;26.80;76.10;;;27.08;60.77;95108.91;4999299;28;20224;-81
2022/08/25 10:04:51;;;;;;;0.30;0.30;;;26.90;76.30;;;27.21;60.87;95103.88;5013313;28;20228;-81
2022/08/25 10:07:51;;;;;;;0.30;0.30;;;27.00;76.10;;;27.30;60.42;95112.88;5015510;28;20244;-83
2022/08/25 10:10:42;;;;;;;0.30;0.30;;;27.10;75.70;;;27.32;59.83;95108.00;5012227;28;20750;-81
2022/08/25 10:13:22;;;;;;;0.30;0.30;;;27.20;75.30;;;27.36;60.27;95111.72;5010622;28;20208;-80
2022/08/25 10:16:22;;;;;;;0.30;0.30;;;27.30;75.20;;;27.35;60.03;95107.41;4995832;28;20279;-81
2022/08/25 10:19:25;;;;;;;0.30;0.30;;;27.30;75.00;;;27.33;60.13;95106.91;4995801;28;20281;-80
2022/08/25 10:22:08;;;;;;;0.30;0.30;;;27.30;74.70;;;27.39;59.79;95104.94;4997559;28;20308;-81
2022/08/25 10:24:39;;;;;;;0.30;0.30;;;27.30;75.00;;;27.51;59.85;95099.13;4995261;28;20272;-82
2022/08/25 10:27:38;;;;;;;0.30;0.30;;;27.40;75.30;;;27.63;59.83;95096.75;5011873;28;20297;-81
2022/08/25 10:30:17;;;;;;;0.30;0.30;;;27.50;74.90;;;27.73;58.84;95088.47;5010954;28;20254;-81
2022/08/25 10:33:38;;;;;;;0.30;0.30;;;27.60;74.90;;;27.77;59.08;95094.06;5002152;28;20306;-82
2022/08/25 10:36:29;;;;;;;0.30;0.30;;;27.70;74.20;;;27.69;57.83;95089.38;5023545;28;20246;-81
2022/08/25 10:38:59;;;;;;;0.30;0.30;;;27.70;73.00;;;27.60;58.03;95081.97;5031333;28;20204;-81
2022/08/25 10:41:56;;;;;;;0.30;0.30;;;27.70;73.40;;;27.54;58.70;95079.66;5012298;28;20692;-81
2022/08/25 10:48:04;;;;;;;0.30;0.30;;;27.60;73.90;;;27.65;58.74;95091.88;5012495;28;20322;-80
2022/08/25 10:51:12;;;;;;;0.40;0.40;;;27.60;74.20;;;27.73;59.20;95088.47;4994563;28;20676;-81
2022/08/25 10:54:14;;;;;;;0.30;0.30;;;27.70;73.90;;;27.86;58.69;95078.81;5011144;28;20207;-81
2022/08/25 10:57:17;;;;;;;0.20;0.20;;;27.80;74.00;;;27.99;58.82;95074.56;5011424;28;20225;-82
2022/08/25 11:00:11;;;;;;;0.20;0.20;;;27.90;74.40;;;28.16;58.08;95067.78;5026509;28;20220;-80
2022/08/25 11:03:44;;;;;;;0.20;0.20;;;28.00;73.40;;;28.25;58.09;95061.38;5028271;28;20252;-82
2022/08/25 11:06:19;;;;;;;0.30;0.30;;;28.20;73.20;;;28.35;57.67;95064.97;5030216;28;20242;-81
2022/08/25 11:08:53;;;;;;;0.30;0.30;;;28.30;73.50;;;28.39;57.52;95050.59;5014982;28;20187;-82